sensor_id;sensor_type;location;lat;lon;timestamp;pressure;altitude;pressure_sealevel;temperature;humidity
58467;BME280;44255;49.244;7.726;2022-11-10T04:32:46;99007.41;;;11.65;89.99
58467;BME280;44255;49.244;7.726;2022-11-10T04:35:11;99012.56;;;11.70;89.37
58467;BME280;44255;49.244;7.726;2022-11-10T04:37:36;99010.38;;;11.54;90.92
58467;BME280;44255;49.244;7.726;2022-11-10T04:40:02;99013.69;;;11.62;90.39
58467;BME280;44255;49.244;7.726;2022-11-10T04:42:27;99016.91;;;11.44;91.24
58467;BME280;44255;49.244;7.726;2022-11-10T04:44:52;99014.84;;;11.82;88.89
58467;BME280;44255;49.244;7.726;2022-11-10T04:47:17;99009.94;;;11.40;89.84
58467;BME280;44255;49.244;7.726;2022-11-10T04:49:43;99015.16;;;11.43;90.02
58467;BME280;44255;49.244;7.726;2022-11-10T04:52:08;99007.53;;;11.30;91.31
58467;BME280;44255;49.244;7.726;2022-11-10T04:54:33;99022.13;;;11.48;90.65
58467;BME280;44255;49.244;7.726;2022-11-10T04:56:58;99025.66;;;11.77;89.25
58467;BME280;44255;49.244;7.726;2022-11-10T04:59:23;99034.56;;;11.46;90.15
58467;BME280;44255;49.244;7.726;2022-11-10T05:01:49;99044.34;;;11.47;89.85
58467;BME280;44255;49.244;7.726;2022-11-10T05:04:14;99053.97;;;11.21;91.89
58467;BME280;44255;49.244;7.726;2022-11-10T05:06:39;99055.50;;;11.60;90.72
58467;BME280;44255;49.244;7.726;2022-11-10T05:09:04;99051.78;;;11.36;91.63
58467;BME280;44255;49.244;7.726;2022-11-10T05:11:30;99053.88;;;11.24;91.84
58467;BME280;44255;49.244;7.726;2022-11-10T05:13:55;99045.06;;;11.21;92.25
58467;BME280;44255;49.244;7.726;2022-11-10T05:16:20;99050.34;;;11.54;90.91
58467;BME280;44255;49.244;7.726;2022-11-10T05:18:45;99051.81;;;11.34;91.69
58467;BME280;44255;49.244;7.726;2022-11-10T05:21:11;99054.34;;;11.07;91.98
58467;BME280;44255;49.244;7.726;2022-11-10T05:23:36;99064.69;;;11.18;91.35
58467;BME280;44255;49.244;7.726;2022-11-10T05:26:10;99080.81;;;11.14;92.07
58467;BME280;44255;49.244;7.726;2022-11-10T05:28:36;99078.03;;;11.18;91.71
58467;BME280;44255;49.244;7.726;2022-11-10T05:31:02;99080.50;;;11.24;91.29
58467;BME280;44255;49.244;7.726;2022-11-10T05:33:27;99082.50;;;11.48;90.60
58467;BME280;44255;49.244;7.726;2022-11-10T05:35:53;99078.13;;;11.45;89.75
58467;BME280;44255;49.244;7.726;2022-11-10T05:38:18;99079.66;;;11.54;90.00
58467;BME280;44255;49.244;7.726;2022-11-10T05:40:43;99077.97;;;11.51;89.10
58467;BME280;44255;49.244;7.726;2022-11-10T05:43:10;99088.03;;;11.42;90.49
58467;BME280;44255;49.244;7.726;2022-11-10T05:45:35;99086.00;;;11.50;89.88
58467;BME280;44255;49.244;7.726;2022-11-10T05:48:00;99083.22;;;11.55;89.89
58467;BME280;44255;49.244;7.726;2022-11-10T05:50:25;99100.16;;;11.52;90.02
58467;BME280;44255;49.244;7.726;2022-11-10T05:52:52;99109.72;;;11.28;90.66
58467;BME280;44255;49.244;7.726;2022-11-10T05:55:24;99114.06;;;11.32;90.78
58467;BME280;44255;49.244;7.726;2022-11-10T05:57:51;99105.66;;;11.47;90.68
58467;BME280;44255;49.244;7.726;2022-11-10T06:00:20;99112.88;;;11.42;91.12
58467;BME280;44255;49.244;7.726;2022-11-10T06:03:02;99121.19;;;11.30;91.08
58467;BME280;44255;49.244;7.726;2022-11-10T06:05:30;99128.22;;;11.34;91.47
58467;BME280;44255;49.244;7.726;2022-11-10T06:07:56;99134.66;;;11.25;91.58
58467;BME280;44255;49.244;7.726;2022-11-10T06:10:22;99146.59;;;11.10;92.54
58467;BME280;44255;49.244;7.726;2022-11-10T06:12:47;99140.75;;;10.95;93.17
58467;BME280;44255;49.244;7.726;2022-11-10T06:15:12;99143.00;;;11.11;92.64
58467;BME280;44255;49.244;7.726;2022-11-10T06:17:39;99146.00;;;11.65;91.27
58467;BME280;44255;49.244;7.726;2022-11-10T06:20:05;99161.53;;;11.49;90.88
58467;BME280;44255;49.244;7.726;2022-11-10T06:22:30;99151.00;;;11.44;90.97
58467;BME280;44255;49.244;7.726;2022-11-10T06:24:55;99167.81;;;11.46;90.08
58467;BME280;44255;49.244;7.726;2022-11-10T06:27:21;99175.41;;;11.29;91.64
58467;BME280;44255;49.244;7.726;2022-11-10T06:29:46;99174.41;;;11.66;90.54
58467;BME280;44255;49.244;7.726;2022-11-10T06:32:11;99173.06;;;11.83;89.18
58467;BME280;44255;49.244;7.726;2022-11-10T06:34:36;99178.53;;;11.78;88.92
58467;BME280;44255;49.244;7.726;2022-11-10T06:37:02;99189.97;;;11.81;89.29
58467;BME280;44255;49.244;7.726;2022-11-10T06:39:27;99195.81;;;11.63;89.60
58467;BME280;44255;49.244;7.726;2022-11-10T06:41:52;99193.31;;;11.57;90.35
58467;BME280;44255;49.244;7.726;2022-11-10T06:44:18;99200.72;;;11.45;91.25
58467;BME280;44255;49.244;7.726;2022-11-10T06:46:43;99208.66;;;11.48;90.69
58467;BME280;44255;49.244;7.726;2022-11-10T06:49:08;99221.38;;;11.70;90.51
58467;BME280;44255;49.244;7.726;2022-11-10T06:51:33;99234.94;;;11.28;91.12
58467;BME280;44255;49.244;7.726;2022-11-10T06:53:59;99236.38;;;11.05;92.39
58467;BME280;44255;49.244;7.726;2022-11-10T06:56:24;99243.47;;;10.68;92.97
58467;BME280;44255;49.244;7.726;2022-11-10T06:58:49;99245.91;;;10.79;93.55
58467;BME280;44255;49.244;7.726;2022-11-10T07:01:14;99253.44;;;10.98;92.61
58467;BME280;44255;49.244;7.726;2022-11-10T07:03:40;99255.13;;;11.00;92.70
58467;BME280;44255;49.244;7.726;2022-11-10T07:06:05;99254.50;;;11.27;91.35
58467;BME280;44255;49.244;7.726;2022-11-10T07:08:30;99250.91;;;11.28;91.27
58467;BME280;44255;49.244;7.726;2022-11-10T07:10:56;99244.34;;;11.41;90.76
58467;BME280;44255;49.244;7.726;2022-11-10T07:13:22;99246.91;;;11.46;90.17
58467;BME280;44255;49.244;7.726;2022-11-10T07:15:47;99261.56;;;11.28;91.44
58467;BME280;44255;49.244;7.726;2022-11-10T07:18:13;99268.97;;;10.78;93.82
58467;BME280;44255;49.244;7.726;2022-11-10T07:20:38;99278.59;;;10.84;93.41
58467;BME280;44255;49.244;7.726;2022-11-10T07:23:05;99285.34;;;10.61;94.51
58467;BME280;44255;49.244;7.726;2022-11-10T07:25:33;99285.38;;;10.58;95.46
58467;BME280;44255;49.244;7.726;2022-11-10T07:28:04;99288.34;;;10.44;95.94
58467;BME280;44255;49.244;7.726;2022-11-10T07:30:33;99284.66;;;10.91;94.30
58467;BME280;44255;49.244;7.726;2022-11-10T07:33:04;99285.03;;;11.13;93.05
58467;BME280;44255;49.244;7.726;2022-11-10T07:35:30;99296.97;;;11.33;91.93
58467;BME280;44255;49.244;7.726;2022-11-10T07:37:56;99290.41;;;11.10;92.81
58467;BME280;44255;49.244;7.726;2022-11-10T07:40:22;99298.88;;;11.28;91.04
58467;BME280;44255;49.244;7.726;2022-11-10T07:42:48;99310.69;;;11.53;90.63
58467;BME280;44255;49.244;7.726;2022-11-10T07:45:13;99308.59;;;11.30;90.87
58467;BME280;44255;49.244;7.726;2022-11-10T07:47:39;99311.16;;;10.95;92.77
58467;BME280;44255;49.244;7.726;2022-11-10T07:50:05;99312.97;;;10.93;92.82
58467;BME280;44255;49.244;7.726;2022-11-10T07:52:30;99319.06;;;11.38;91.30
58467;BME280;44255;49.244;7.726;2022-11-10T07:54:55;99318.78;;;11.11;91.25
58467;BME280;44255;49.244;7.726;2022-11-10T07:57:21;99319.06;;;11.36;91.14
58467;BME280;44255;49.244;7.726;2022-11-10T07:59:46;99325.38;;;11.34;91.21
58467;BME280;44255;49.244;7.726;2022-11-10T08:02:11;99323.19;;;11.50;90.22
58467;BME280;44255;49.244;7.726;2022-11-10T08:04:36;99333.09;;;11.07;91.74
58467;BME280;44255;49.244;7.726;2022-11-10T08:07:02;99337.06;;;11.27;90.68
58467;BME280;44255;49.244;7.726;2022-11-10T08:09:27;99341.09;;;11.07;91.07
58467;BME280;44255;49.244;7.726;2022-11-10T08:11:53;99346.25;;;11.52;89.59
58467;BME280;44255;49.244;7.726;2022-11-10T08:14:18;99344.41;;;11.89;88.59
58467;BME280;44255;49.244;7.726;2022-11-10T08:16:43;99350.34;;;11.66;88.62
58467;BME280;44255;49.244;7.726;2022-11-10T08:19:08;99353.41;;;11.85;88.20
58467;BME280;44255;49.244;7.726;2022-11-10T08:21:34;99353.78;;;11.35;89.44
58467;BME280;44255;49.244;7.726;2022-11-10T08:23:59;99354.91;;;11.61;88.98
58467;BME280;44255;49.244;7.726;2022-11-10T08:26:24;99358.19;;;11.72;88.39
58467;BME280;44255;49.244;7.726;2022-11-10T08:28:49;99361.59;;;11.77;88.38
58467;BME280;44255;49.244;7.726;2022-11-10T08:31:15;99371.81;;;12.29;87.04
58467;BME280;44255;49.244;7.726;2022-11-10T08:33:40;99371.88;;;11.93;86.99
58467;BME280;44255;49.244;7.726;2022-11-10T08:36:05;99380.50;;;12.04;86.66
58467;BME280;44255;49.244;7.726;2022-11-10T08:38:31;99375.47;;;12.27;85.38
58467;BME280;44255;49.244;7.726;2022-11-10T08:40:56;99374.78;;;12.20;85.60
58467;BME280;44255;49.244;7.726;2022-11-10T08:43:22;99371.66;;;12.01;87.21
58467;BME280;44255;49.244;7.726;2022-11-10T08:45:47;99379.22;;;11.85;87.41
58467;BME280;44255;49.244;7.726;2022-11-10T08:48:15;99387.94;;;11.91;86.51
58467;BME280;44255;49.244;7.726;2022-11-10T08:50:41;99389.28;;;11.72;85.52
58467;BME280;44255;49.244;7.726;2022-11-10T08:53:18;99388.41;;;11.73;86.59
58467;BME280;44255;49.244;7.726;2022-11-10T08:55:45;99398.44;;;11.61;86.50
58467;BME280;44255;49.244;7.726;2022-11-10T08:58:16;99403.72;;;11.63;86.86
58467;BME280;44255;49.244;7.726;2022-11-10T09:00:42;99399.25;;;11.65;87.53
58467;BME280;44255;49.244;7.726;2022-11-10T09:03:11;99393.88;;;11.66;86.88
58467;BME280;44255;49.244;7.726;2022-11-10T09:05:37;99409.97;;;11.62;87.00
58467;BME280;44255;49.244;7.726;2022-11-10T09:08:03;99411.41;;;11.39;88.57
58467;BME280;44255;49.244;7.726;2022-11-10T09:10:29;99412.13;;;11.84;86.41
58467;BME280;44255;49.244;7.726;2022-11-10T09:12:57;99428.53;;;12.04;86.18
58467;BME280;44255;49.244;7.726;2022-11-10T09:15:22;99420.22;;;12.17;85.47
58467;BME280;44255;49.244;7.726;2022-11-10T09:17:47;99435.16;;;12.56;84.16
58467;BME280;44255;49.244;7.726;2022-11-10T09:20:12;99428.66;;;12.33;84.27
58467;BME280;44255;49.244;7.726;2022-11-10T09:22:38;99439.53;;;12.25;84.12
58467;BME280;44255;49.244;7.726;2022-11-10T09:25:04;99429.22;;;12.46;83.82
58467;BME280;44255;49.244;7.726;2022-11-10T09:27:30;99438.53;;;12.62;84.27
58467;BME280;44255;49.244;7.726;2022-11-10T09:29:55;99442.84;;;12.35;84.36
58467;BME280;44255;49.244;7.726;2022-11-10T09:32:21;99453.44;;;12.38;83.56
58467;BME280;44255;49.244;7.726;2022-11-10T09:34:46;99459.50;;;12.45;83.81
58467;BME280;44255;49.244;7.726;2022-11-10T09:37:11;99458.16;;;12.61;83.50
58467;BME280;44255;49.244;7.726;2022-11-10T09:39:37;99457.63;;;12.14;83.34
58467;BME280;44255;49.244;7.726;2022-11-10T09:42:39;99468.81;;;11.92;84.80
58467;BME280;44255;49.244;7.726;2022-11-10T09:45:10;99462.56;;;12.29;84.73
58467;BME280;44255;49.244;7.726;2022-11-10T09:47:50;99462.03;;;12.49;83.07
58467;BME280;44255;49.244;7.726;2022-11-10T09:53:18;99457.81;;;12.06;83.76
58467;BME280;44255;49.244;7.726;2022-11-10T09:55:52;99469.44;;;12.03;85.13
58467;BME280;44255;49.244;7.726;2022-11-10T09:58:22;99462.44;;;12.34;83.56
58467;BME280;44255;49.244;7.726;2022-11-10T10:01:04;99447.66;;;12.20;83.53
58467;BME280;44255;49.244;7.726;2022-11-10T10:03:34;99462.75;;;12.21;83.40
58467;BME280;44255;49.244;7.726;2022-11-10T10:06:20;99456.66;;;12.18;83.86
58467;BME280;44255;49.244;7.726;2022-11-10T10:09:15;99467.25;;;12.21;83.69
58467;BME280;44255;49.244;7.726;2022-11-10T10:11:58;99471.28;;;12.69;83.91
58467;BME280;44255;49.244;7.726;2022-11-10T10:14:50;99473.88;;;12.39;83.98
58467;BME280;44255;49.244;7.726;2022-11-10T10:17:35;99470.88;;;12.51;83.73
58467;BME280;44255;49.244;7.726;2022-11-10T10:20:15;99471.16;;;12.42;83.93
58467;BME280;44255;49.244;7.726;2022-11-10T10:25:36;99473.81;;;12.75;81.53
58467;BME280;44255;49.244;7.726;2022-11-10T10:28:11;99468.59;;;12.71;82.54
58467;BME280;44255;49.244;7.726;2022-11-10T10:30:40;99482.03;;;12.33;84.43
58467;BME280;44255;49.244;7.726;2022-11-10T10:33:15;99487.63;;;12.57;83.73
58467;BME280;44255;49.244;7.726;2022-11-10T10:35:42;99492.28;;;12.15;85.34
58467;BME280;44255;49.244;7.726;2022-11-10T10:40:50;99485.41;;;12.41;84.16
58467;BME280;44255;49.244;7.726;2022-11-10T10:43:15;99478.66;;;12.61;84.28
58467;BME280;44255;49.244;7.726;2022-11-10T10:45:41;99467.78;;;12.34;84.09
58467;BME280;44255;49.244;7.726;2022-11-10T10:48:28;99480.59;;;12.54;84.68
58467;BME280;44255;49.244;7.726;2022-11-10T10:50:53;99484.00;;;12.92;83.21
58467;BME280;44255;49.244;7.726;2022-11-10T10:53:23;99477.78;;;12.92;82.11
58467;BME280;44255;49.244;7.726;2022-11-10T10:56:05;99474.16;;;12.61;82.68
58467;BME280;44255;49.244;7.726;2022-11-10T10:58:52;99469.94;;;12.86;82.62
58467;BME280;44255;49.244;7.726;2022-11-10T11:01:24;99469.25;;;12.79;82.40
58467;BME280;44255;49.244;7.726;2022-11-10T11:03:51;99454.13;;;12.78;81.70
58467;BME280;44255;49.244;7.726;2022-11-10T11:06:22;99461.63;;;12.65;82.34
58467;BME280;44255;49.244;7.726;2022-11-10T11:09:06;99456.72;;;12.81;82.95
58467;BME280;44255;49.244;7.726;2022-11-10T11:11:37;99455.06;;;12.77;82.13
58467;BME280;44255;49.244;7.726;2022-11-10T11:14:22;99468.38;;;13.10;81.57
58467;BME280;44255;49.244;7.726;2022-11-10T11:16:53;99457.69;;;13.10;81.02
58467;BME280;44255;49.244;7.726;2022-11-10T11:19:21;99446.63;;;13.22;81.42
58467;BME280;44255;49.244;7.726;2022-11-10T11:24:46;99452.03;;;13.51;78.64
58467;BME280;44255;49.244;7.726;2022-11-10T11:27:33;99440.75;;;13.70;79.05
58467;BME280;44255;49.244;7.726;2022-11-10T11:32:57;99449.66;;;13.97;77.62
58467;BME280;44255;49.244;7.726;2022-11-10T11:38:30;99444.03;;;13.49;79.31
58467;BME280;44255;49.244;7.726;2022-11-10T11:46:39;99453.53;;;13.60;79.22
58467;BME280;44255;49.244;7.726;2022-11-10T11:49:33;99455.72;;;13.47;78.53
58467;BME280;44255;49.244;7.726;2022-11-10T11:52:29;99468.16;;;14.03;77.44
58467;BME280;44255;49.244;7.726;2022-11-10T11:57:52;99478.56;;;13.86;77.54
58467;BME280;44255;49.244;7.726;2022-11-10T12:00:21;99479.00;;;13.43;79.10
58467;BME280;44255;49.244;7.726;2022-11-10T12:02:58;99485.16;;;13.45;78.75
58467;BME280;44255;49.244;7.726;2022-11-10T12:08:27;99482.13;;;13.58;78.23
58467;BME280;44255;49.244;7.726;2022-11-10T12:11:19;99468.56;;;13.64;78.02
58467;BME280;44255;49.244;7.726;2022-11-10T12:14:44;99468.81;;;14.12;77.41
58467;BME280;44255;49.244;7.726;2022-11-10T12:17:03;99475.81;;;14.16;76.57
58467;BME280;44255;49.244;7.726;2022-11-10T12:19:43;99477.47;;;14.45;75.67
58467;BME280;44255;49.244;7.726;2022-11-10T12:25:26;99484.59;;;13.92;78.22
58467;BME280;44255;49.244;7.726;2022-11-10T12:28:06;99479.81;;;14.56;77.42
58467;BME280;44255;49.244;7.726;2022-11-10T12:30:34;99471.03;;;14.51;75.29
58467;BME280;44255;49.244;7.726;2022-11-10T12:35:34;99475.78;;;14.43;75.97
58467;BME280;44255;49.244;7.726;2022-11-10T12:38:11;99480.34;;;14.41;75.98
58467;BME280;44255;49.244;7.726;2022-11-10T12:40:41;99480.56;;;14.85;75.16
58467;BME280;44255;49.244;7.726;2022-11-10T12:43:17;99483.69;;;14.98;74.65
58467;BME280;44255;49.244;7.726;2022-11-10T12:45:50;99485.50;;;14.71;75.03
58467;BME280;44255;49.244;7.726;2022-11-10T12:48:17;99488.16;;;15.21;73.42
58467;BME280;44255;49.244;7.726;2022-11-10T12:53:39;99486.00;;;15.31;73.17
58467;BME280;44255;49.244;7.726;2022-11-10T12:58:31;99491.00;;;15.42;72.41
58467;BME280;44255;49.244;7.726;2022-11-10T13:01:03;99491.41;;;15.54;71.61
58467;BME280;44255;49.244;7.726;2022-11-10T13:03:31;99489.50;;;15.10;71.83
58467;BME280;44255;49.244;7.726;2022-11-10T13:06:00;99495.81;;;15.08;71.79
58467;BME280;44255;49.244;7.726;2022-11-10T13:08:35;99495.03;;;15.99;69.30
58467;BME280;44255;49.244;7.726;2022-11-10T13:11:05;99498.53;;;15.78;69.39
58467;BME280;44255;49.244;7.726;2022-11-10T13:13:43;99497.75;;;15.75;68.72
58467;BME280;44255;49.244;7.726;2022-11-10T13:16:11;99500.66;;;16.15;67.83
58467;BME280;44255;49.244;7.726;2022-11-10T13:18:55;99498.53;;;16.23;67.39
58467;BME280;44255;49.244;7.726;2022-11-10T13:24:28;99505.69;;;16.45;67.59
58467;BME280;44255;49.244;7.726;2022-11-10T13:27:04;99508.84;;;15.89;68.30
58467;BME280;44255;49.244;7.726;2022-11-10T13:34:51;99532.53;;;15.30;69.87
58467;BME280;44255;49.244;7.726;2022-11-10T13:42:41;99512.47;;;16.11;67.99
58467;BME280;44255;49.244;7.726;2022-11-10T13:47:56;99532.28;;;15.84;68.43
58467;BME280;44255;49.244;7.726;2022-11-10T13:50:26;99544.19;;;15.29;69.48
58467;BME280;44255;49.244;7.726;2022-11-10T13:53:10;99538.13;;;15.96;68.63
58467;BME280;44255;49.244;7.726;2022-11-10T13:56:08;99533.91;;;15.88;68.48
58467;BME280;44255;49.244;7.726;2022-11-10T13:58:41;99536.09;;;15.78;68.42
58467;BME280;44255;49.244;7.726;2022-11-10T14:06:14;99540.34;;;16.29;67.80
58467;BME280;44255;49.244;7.726;2022-11-10T14:08:45;99552.31;;;15.75;68.58
58467;BME280;44255;49.244;7.726;2022-11-10T14:11:17;99555.44;;;15.39;69.30
58467;BME280;44255;49.244;7.726;2022-11-10T14:13:49;99552.31;;;15.28;69.52
58467;BME280;44255;49.244;7.726;2022-11-10T14:16:22;99544.28;;;14.77;71.88
58467;BME280;44255;49.244;7.726;2022-11-10T14:19:02;99543.69;;;14.40;72.33
58467;BME280;44255;49.244;7.726;2022-11-10T14:21:34;99542.25;;;14.57;72.87
58467;BME280;44255;49.244;7.726;2022-11-10T14:24:12;99553.03;;;14.82;71.79
58467;BME280;44255;49.244;7.726;2022-11-10T14:26:47;99546.53;;;14.35;73.65
58467;BME280;44255;49.244;7.726;2022-11-10T14:29:28;99539.47;;;14.60;73.13
58467;BME280;44255;49.244;7.726;2022-11-10T14:31:56;99553.91;;;14.56;73.21
58467;BME280;44255;49.244;7.726;2022-11-10T14:34:23;99554.84;;;13.99;74.62
58467;BME280;44255;49.244;7.726;2022-11-10T14:36:56;99555.16;;;14.17;75.13
58467;BME280;44255;49.244;7.726;2022-11-10T14:39:30;99557.63;;;13.96;75.62
58467;BME280;44255;49.244;7.726;2022-11-10T14:41:59;99552.91;;;14.04;75.01
58467;BME280;44255;49.244;7.726;2022-11-10T14:44:26;99555.19;;;13.88;75.40
58467;BME280;44255;49.244;7.726;2022-11-10T14:46:52;99565.63;;;13.36;76.98
58467;BME280;44255;49.244;7.726;2022-11-10T14:49:26;99559.81;;;12.88;78.74
58467;BME280;44255;49.244;7.726;2022-11-10T14:51:56;99574.41;;;13.08;79.31
58467;BME280;44255;49.244;7.726;2022-11-10T14:54:26;99569.41;;;12.95;79.16
58467;BME280;44255;49.244;7.726;2022-11-10T14:56:54;99575.47;;;13.02;79.54
58467;BME280;44255;49.244;7.726;2022-11-10T14:59:23;99579.75;;;13.08;79.07
58467;BME280;44255;49.244;7.726;2022-11-10T15:01:56;99595.00;;;13.04;79.38
58467;BME280;44255;49.244;7.726;2022-11-10T15:04:31;99593.91;;;12.78;80.59
58467;BME280;44255;49.244;7.726;2022-11-10T15:07:00;99592.91;;;12.83;80.49
58467;BME280;44255;49.244;7.726;2022-11-10T15:09:28;99590.44;;;12.73;80.84
58467;BME280;44255;49.244;7.726;2022-11-10T15:12:25;99600.63;;;12.93;80.15
58467;BME280;44255;49.244;7.726;2022-11-10T15:14:58;99596.50;;;12.82;79.81
58467;BME280;44255;49.244;7.726;2022-11-10T15:17:48;99603.03;;;12.70;80.86
58467;BME280;44255;49.244;7.726;2022-11-10T15:23:00;99588.56;;;13.12;80.47
58467;BME280;44255;49.244;7.726;2022-11-10T15:25:35;99583.88;;;12.87;80.79
58467;BME280;44255;49.244;7.726;2022-11-10T15:30:27;99590.78;;;12.95;80.34
58467;BME280;44255;49.244;7.726;2022-11-10T15:32:52;99593.94;;;12.77;80.58
58467;BME280;44255;49.244;7.726;2022-11-10T15:40:46;99603.22;;;12.26;82.18
58467;BME280;44255;49.244;7.726;2022-11-10T15:43:24;99605.25;;;12.52;81.40
58467;BME280;44255;49.244;7.726;2022-11-10T15:45:58;99599.50;;;12.31;82.14
58467;BME280;44255;49.244;7.726;2022-11-10T15:48:45;99612.41;;;12.12;82.86
58467;BME280;44255;49.244;7.726;2022-11-10T15:51:14;99606.44;;;11.99;83.37
58467;BME280;44255;49.244;7.726;2022-11-10T15:53:45;99607.53;;;11.48;84.77
58467;BME280;44255;49.244;7.726;2022-11-10T15:56:13;99615.75;;;11.35;86.12
58467;BME280;44255;49.244;7.726;2022-11-10T15:58:42;99611.34;;;11.34;85.99
58467;BME280;44255;49.244;7.726;2022-11-10T16:01:10;99626.63;;;11.26;85.99
58467;BME280;44255;49.244;7.726;2022-11-10T16:03:35;99622.69;;;10.99;87.39
58467;BME280;44255;49.244;7.726;2022-11-10T16:06:00;99620.31;;;10.81;88.48
58467;BME280;44255;49.244;7.726;2022-11-10T16:08:26;99634.13;;;11.02;88.14
58467;BME280;44255;49.244;7.726;2022-11-10T16:10:53;99636.94;;;10.94;88.61
58467;BME280;44255;49.244;7.726;2022-11-10T16:13:25;99625.97;;;11.13;87.80
58467;BME280;44255;49.244;7.726;2022-11-10T16:15:52;99627.50;;;10.76;89.37
58467;BME280;44255;49.244;7.726;2022-11-10T16:18:20;99635.50;;;10.75;89.85
58467;BME280;44255;49.244;7.726;2022-11-10T16:20:50;99623.81;;;10.85;89.35
58467;BME280;44255;49.244;7.726;2022-11-10T16:23:16;99627.44;;;10.79;89.82
58467;BME280;44255;49.244;7.726;2022-11-10T16:25:42;99629.31;;;10.74;89.61
58467;BME280;44255;49.244;7.726;2022-11-10T16:28:10;99617.69;;;10.80;89.56
58467;BME280;44255;49.244;7.726;2022-11-10T16:30:37;99632.06;;;10.70;88.98
58467;BME280;44255;49.244;7.726;2022-11-10T16:33:02;99631.09;;;10.74;90.47
58467;BME280;44255;49.244;7.726;2022-11-10T16:35:27;99633.66;;;10.80;89.25
58467;BME280;44255;49.244;7.726;2022-11-10T16:37:53;99633.88;;;10.66;90.65
58467;BME280;44255;49.244;7.726;2022-11-10T16:40:21;99630.88;;;10.88;90.32
58467;BME280;44255;49.244;7.726;2022-11-10T16:42:47;99634.31;;;10.93;89.49
58467;BME280;44255;49.244;7.726;2022-11-10T16:45:14;99633.97;;;11.13;89.16
58467;BME280;44255;49.244;7.726;2022-11-10T16:47:40;99654.06;;;10.79;90.68
58467;BME280;44255;49.244;7.726;2022-11-10T16:50:17;99641.41;;;10.94;89.93
58467;BME280;44255;49.244;7.726;2022-11-10T16:52:47;99643.09;;;10.98;89.67
58467;BME280;44255;49.244;7.726;2022-11-10T16:55:13;99653.91;;;11.37;88.65
58467;BME280;44255;49.244;7.726;2022-11-10T16:57:38;99657.19;;;11.53;87.71
58467;BME280;44255;49.244;7.726;2022-11-10T17:00:03;99654.16;;;11.71;87.71
58467;BME280;44255;49.244;7.726;2022-11-10T17:02:31;99653.16;;;11.76;86.33
58467;BME280;44255;49.244;7.726;2022-11-10T17:04:58;99670.72;;;11.87;85.68
58467;BME280;44255;49.244;7.726;2022-11-10T17:07:25;99670.59;;;11.93;84.64
58467;BME280;44255;49.244;7.726;2022-11-10T17:09:53;99676.75;;;11.97;84.99
58467;BME280;44255;49.244;7.726;2022-11-10T17:12:19;99673.19;;;11.96;84.63
58467;BME280;44255;49.244;7.726;2022-11-10T17:14:45;99685.59;;;11.99;84.69
58467;BME280;44255;49.244;7.726;2022-11-10T17:17:15;99684.56;;;12.06;83.99
58467;BME280;44255;49.244;7.726;2022-11-10T17:19:42;99691.59;;;12.10;84.42
58467;BME280;44255;49.244;7.726;2022-11-10T17:22:15;99691.53;;;12.13;83.58
58467;BME280;44255;49.244;7.726;2022-11-10T17:24:40;99691.47;;;12.15;83.87
58467;BME280;44255;49.244;7.726;2022-11-10T17:27:07;99699.53;;;12.13;83.54
58467;BME280;44255;49.244;7.726;2022-11-10T17:29:32;99696.81;;;12.15;83.93
58467;BME280;44255;49.244;7.726;2022-11-10T17:31:57;99696.81;;;12.15;83.32
58467;BME280;44255;49.244;7.726;2022-11-10T17:34:22;99711.81;;;12.20;83.57
58467;BME280;44255;49.244;7.726;2022-11-10T17:36:49;99710.91;;;12.21;83.73
58467;BME280;44255;49.244;7.726;2022-11-10T17:39:15;99713.56;;;12.21;83.76
58467;BME280;44255;49.244;7.726;2022-11-10T17:41:41;99705.75;;;12.14;83.34
58467;BME280;44255;49.244;7.726;2022-11-10T17:44:13;99712.66;;;12.22;83.01
58467;BME280;44255;49.244;7.726;2022-11-10T17:46:40;99716.31;;;12.20;83.39
58467;BME280;44255;49.244;7.726;2022-11-10T17:49:05;99717.97;;;12.24;83.60
58467;BME280;44255;49.244;7.726;2022-11-10T17:51:31;99719.19;;;12.09;82.76
58467;BME280;44255;49.244;7.726;2022-11-10T17:53:57;99714.81;;;11.59;84.94
58467;BME280;44255;49.244;7.726;2022-11-10T17:56:27;99704.31;;;11.50;86.39
58467;BME280;44255;49.244;7.726;2022-11-10T17:58:53;99706.50;;;11.28;88.26
58467;BME280;44255;49.244;7.726;2022-11-10T18:01:19;99697.16;;;11.52;87.68
58467;BME280;44255;49.244;7.726;2022-11-10T18:03:46;99704.09;;;11.62;87.28
58467;BME280;44255;49.244;7.726;2022-11-10T18:06:15;99707.31;;;11.78;87.08
58467;BME280;44255;49.244;7.726;2022-11-10T18:08:41;99706.72;;;11.64;86.21
58467;BME280;44255;49.244;7.726;2022-11-10T18:11:11;99705.47;;;11.82;86.74
58467;BME280;44255;49.244;7.726;2022-11-10T18:13:38;99713.41;;;11.85;85.96
58467;BME280;44255;49.244;7.726;2022-11-10T18:16:04;99719.56;;;11.89;85.87
58467;BME280;44255;49.244;7.726;2022-11-10T18:18:30;99713.31;;;11.91;85.57
58467;BME280;44255;49.244;7.726;2022-11-10T18:20:56;99716.84;;;11.92;84.36
58467;BME280;44255;49.244;7.726;2022-11-10T18:23:21;99715.06;;;11.92;83.80
58467;BME280;44255;49.244;7.726;2022-11-10T18:25:47;99717.75;;;11.89;83.78
58467;BME280;44255;49.244;7.726;2022-11-10T18:28:13;99723.00;;;11.95;82.97
58467;BME280;44255;49.244;7.726;2022-11-10T18:30:39;99724.78;;;11.95;83.62
58467;BME280;44255;49.244;7.726;2022-11-10T18:33:05;99706.31;;;11.86;83.38
58467;BME280;44255;49.244;7.726;2022-11-10T18:35:30;99711.59;;;11.87;83.30
58467;BME280;44255;49.244;7.726;2022-11-10T18:37:59;99713.41;;;11.87;83.18
58467;BME280;44255;49.244;7.726;2022-11-10T18:40:24;99703.72;;;11.83;83.21
58467;BME280;44255;49.244;7.726;2022-11-10T18:42:50;99714.31;;;11.84;83.43
58467;BME280;44255;49.244;7.726;2022-11-10T18:45:15;99709.94;;;11.81;83.49
58467;BME280;44255;49.244;7.726;2022-11-10T18:47:40;99705.63;;;11.76;83.81
58467;BME280;44255;49.244;7.726;2022-11-10T18:50:06;99708.16;;;11.80;83.03
58467;BME280;44255;49.244;7.726;2022-11-10T18:52:32;99711.75;;;11.79;83.34
58467;BME280;44255;49.244;7.726;2022-11-10T18:54:57;99709.22;;;11.73;83.84